createdAt,value
2022-08-26T00:02:29.665Z,26.80
2022-08-26T00:05:31.698Z,23.60
2022-08-26T00:08:33.925Z,29.60
2022-08-26T00:11:35.811Z,21.90
2022-08-26T00:14:37.669Z,18.10
2022-08-26T00:17:40.311Z,17.10
2022-08-26T00:20:42.497Z,42.80
2022-08-26T00:23:45.717Z,20.50
2022-08-26T00:26:48.128Z,16.30
2022-08-26T00:29:50.009Z,14.70
2022-08-26T00:32:52.966Z,16.20
2022-08-26T00:35:55.379Z,18.10
2022-08-26T00:38:58.537Z,17.70
2022-08-26T00:42:00.610Z,13.40
2022-08-26T00:45:02.413Z,15.30
2022-08-26T00:48:12.970Z,20.10
2022-08-26T00:51:18.830Z,20.20
2022-08-26T00:54:24.089Z,23.60
2022-08-26T00:57:29.806Z,25.00
2022-08-26T01:00:32.202Z,23.00
2022-08-26T01:03:34.872Z,20.80
2022-08-26T01:06:37.025Z,26.10
2022-08-26T01:09:39.740Z,23.30
2022-08-26T01:12:55.612Z,20.70
2022-08-26T01:16:01.405Z,25.00
2022-08-26T01:19:16.298Z,21.40
2022-08-26T01:22:28.800Z,19.50
2022-08-26T01:25:33.557Z,24.30
2022-08-26T01:28:37.149Z,22.50
2022-08-26T01:31:46.575Z,24.50
2022-08-26T01:34:48.565Z,23.80
2022-08-26T01:37:54.193Z,22.80
2022-08-26T01:40:56.312Z,18.30
2022-08-26T01:43:59.788Z,17.20
2022-08-26T01:47:02.271Z,18.50
2022-08-26T01:50:11.493Z,18.10
2022-08-26T01:53:15.444Z,15.00
2022-08-26T01:56:17.368Z,13.50
2022-08-26T01:59:20.860Z,28.80
2022-08-26T02:02:24.542Z,44.60
2022-08-26T02:05:26.393Z,30.80
2022-08-26T02:08:39.793Z,19.60
2022-08-26T02:11:41.583Z,15.50
2022-08-26T02:14:51.247Z,17.20
2022-08-26T02:17:53.269Z,13.70
2022-08-26T02:20:56.316Z,18.60
2022-08-26T02:24:08.642Z,19.70
2022-08-26T02:27:10.654Z,20.10
2022-08-26T02:30:22.052Z,18.10
2022-08-26T02:33:23.830Z,21.30
2022-08-26T02:36:28.526Z,27.30
2022-08-26T02:39:32.668Z,48.40
2022-08-26T02:42:34.644Z,16.50
2022-08-26T02:45:37.237Z,19.60
2022-08-26T02:48:39.225Z,18.60
2022-08-26T02:51:41.053Z,20.70
2022-08-26T02:54:45.472Z,18.60
2022-08-26T02:57:47.417Z,22.10
2022-08-26T03:00:49.302Z,19.50
2022-08-26T03:03:56.100Z,16.00
2022-08-26T03:06:58.499Z,16.10
2022-08-26T03:10:00.967Z,14.10
2022-08-26T03:13:05.093Z,15.90
2022-08-26T03:16:07.830Z,18.10
2022-08-26T03:19:10.168Z,14.30
2022-08-26T03:22:12.263Z,17.40
2022-08-26T03:25:17.019Z,18.30
2022-08-26T03:28:19.384Z,19.70
2022-08-26T03:31:24.476Z,16.70
2022-08-26T03:34:26.652Z,14.00
2022-08-26T03:37:29.635Z,17.10
2022-08-26T03:40:33.906Z,20.60
2022-08-26T03:43:35.841Z,15.20
2022-08-26T03:46:38.592Z,16.20
2022-08-26T03:49:40.825Z,15.30
2022-08-26T03:52:44.041Z,18.30
2022-08-26T03:55:46.090Z,16.30
2022-08-26T03:58:48.329Z,13.70
2022-08-26T04:01:52.760Z,14.10
2022-08-26T04:04:54.623Z,11.30
2022-08-26T04:07:56.402Z,14.10
2022-08-26T04:10:58.212Z,9.00
2022-08-26T04:14:00.909Z,7.10
2022-08-26T04:17:05.068Z,9.90
2022-08-26T04:20:08.546Z,11.20
2022-08-26T04:23:11.533Z,11.10
2022-08-26T04:26:13.258Z,11.10
2022-08-26T04:29:26.221Z,11.20
2022-08-26T04:32:28.705Z,10.20
2022-08-26T04:35:35.236Z,13.30
2022-08-26T04:38:37.187Z,10.10
2022-08-26T04:41:39.764Z,20.40
2022-08-26T04:44:41.939Z,18.20
2022-08-26T04:47:43.889Z,13.60
2022-08-26T04:50:49.436Z,17.90
2022-08-26T04:53:51.527Z,19.90
2022-08-26T04:56:54.304Z,25.30
2022-08-26T04:59:56.152Z,21.40
2022-08-26T05:02:58.028Z,16.40
2022-08-26T05:06:04.904Z,19.10
2022-08-26T05:09:06.961Z,18.10
2022-08-26T05:12:09.768Z,24.30
2022-08-26T05:15:11.683Z,21.50
2022-08-26T05:18:15.299Z,24.00
2022-08-26T05:21:23.294Z,19.90
2022-08-26T05:24:24.994Z,19.80
2022-08-26T05:27:26.936Z,22.40
2022-08-26T05:30:31.560Z,22.90
2022-08-26T05:33:33.267Z,23.70
2022-08-26T05:36:36.300Z,24.70
2022-08-26T05:39:41.184Z,21.20
2022-08-26T05:42:43.083Z,22.50
2022-08-26T05:45:49.246Z,28.40
2022-08-26T05:48:51.765Z,22.70
2022-08-26T05:51:54.081Z,24.30
2022-08-26T05:54:56.448Z,24.20
2022-08-26T05:57:58.707Z,22.40
2022-08-26T06:01:10.572Z,21.60
2022-08-26T06:04:13.395Z,23.90
2022-08-26T06:07:16.958Z,23.30
2022-08-26T06:10:31.986Z,25.30
2022-08-26T06:13:35.590Z,21.90
2022-08-26T06:16:40.856Z,22.00
2022-08-26T06:19:42.892Z,24.70
2022-08-26T06:23:10.689Z,21.50
2022-08-26T06:26:13.646Z,22.10
2022-08-26T06:29:15.630Z,24.10
2022-08-26T06:32:27.338Z,25.50
2022-08-26T06:35:29.109Z,24.60
2022-08-26T06:38:31.049Z,25.00
2022-08-26T06:41:34.488Z,24.70
2022-08-26T06:44:36.539Z,24.80
2022-08-26T06:47:38.412Z,24.60
2022-08-26T06:50:40.961Z,22.00
2022-08-26T06:53:46.898Z,26.60
2022-08-26T06:56:48.579Z,24.60
2022-08-26T06:59:51.454Z,24.10
2022-08-26T07:02:53.851Z,22.00
2022-08-26T07:06:02.349Z,25.30
2022-08-26T07:09:06.851Z,26.30
2022-08-26T07:12:11.674Z,22.50
2022-08-26T07:15:13.461Z,24.90
2022-08-26T07:18:17.309Z,23.50
2022-08-26T07:21:20.346Z,26.00
2022-08-26T07:24:23.885Z,23.60
2022-08-26T07:27:30.330Z,25.50
2022-08-26T07:30:32.896Z,25.70
2022-08-26T07:33:36.033Z,22.00
2022-08-26T07:36:38.281Z,25.10
2022-08-26T07:39:41.751Z,24.00
2022-08-26T07:42:45.446Z,27.50
2022-08-26T07:45:47.300Z,26.40
2022-08-26T07:48:50.572Z,24.20
2022-08-26T07:51:54.201Z,22.30
2022-08-26T07:54:58.258Z,22.00
2022-08-26T07:58:00.748Z,26.30
2022-08-26T08:01:03.265Z,24.60
2022-08-26T08:04:07.335Z,21.30
2022-08-26T08:07:12.058Z,26.20
2022-08-26T08:10:21.106Z,21.30
2022-08-26T08:13:24.134Z,21.50
2022-08-26T08:16:26.295Z,25.50
2022-08-26T08:19:29.934Z,22.90
2022-08-26T08:22:38.856Z,24.00
2022-08-26T08:25:42.608Z,24.50
2022-08-26T08:28:44.828Z,25.40
2022-08-26T08:31:56.916Z,23.40
2022-08-26T08:35:00.285Z,20.00
2022-08-26T08:38:04.254Z,22.50
2022-08-26T08:41:37.393Z,23.10
2022-08-26T08:44:42.231Z,22.20
2022-08-26T08:47:54.106Z,22.50
2022-08-26T08:51:05.987Z,23.60
2022-08-26T08:54:08.358Z,21.30
2022-08-26T08:57:33.064Z,20.70
2022-08-26T09:00:44.407Z,23.90
2022-08-26T09:04:33.067Z,24.50
2022-08-26T09:07:47.157Z,24.90
2022-08-26T09:10:56.087Z,22.20
2022-08-26T09:14:00.419Z,21.60
2022-08-26T09:17:10.392Z,21.10
2022-08-26T09:20:50.009Z,23.50
2022-08-26T09:23:55.554Z,24.10
2022-08-26T09:26:59.304Z,25.10
2022-08-26T09:30:01.546Z,22.80
2022-08-26T09:33:10.889Z,23.80
2022-08-26T09:36:22.737Z,22.10
2022-08-26T09:39:37.877Z,19.80
2022-08-26T09:42:39.927Z,21.70
2022-08-26T09:45:50.217Z,21.40
2022-08-26T09:48:53.269Z,23.20
2022-08-26T09:52:07.306Z,24.90
2022-08-26T09:55:21.104Z,20.50
2022-08-26T09:58:35.181Z,22.00
2022-08-26T10:01:43.891Z,21.70
2022-08-26T10:04:51.978Z,21.50
2022-08-26T10:07:54.817Z,20.70
2022-08-26T10:11:00.123Z,23.40
2022-08-26T10:14:08.231Z,27.00
2022-08-26T10:17:27.994Z,23.90
2022-08-26T10:20:36.927Z,20.10
2022-08-26T10:23:43.251Z,20.00
2022-08-26T10:27:18.034Z,21.80
2022-08-26T10:30:22.788Z,23.60
2022-08-26T10:33:25.475Z,24.20
2022-08-26T10:37:13.442Z,28.50
2022-08-26T10:40:16.579Z,22.50
2022-08-26T10:43:23.740Z,20.80
2022-08-26T10:46:34.611Z,24.00
2022-08-26T10:49:39.930Z,21.20
2022-08-26T10:53:01.835Z,30.70
2022-08-26T10:56:28.594Z,21.00
2022-08-26T10:59:58.248Z,21.00
2022-08-26T11:03:04.632Z,20.70
2022-08-26T11:06:27.061Z,19.10
2022-08-26T11:09:46.970Z,16.60
2022-08-26T11:13:00.540Z,21.10
2022-08-26T11:16:02.640Z,21.00
2022-08-26T11:19:09.495Z,16.50
2022-08-26T11:22:28.926Z,20.80
2022-08-26T11:25:31.159Z,25.40
2022-08-26T11:28:49.540Z,16.40
2022-08-26T11:31:54.722Z,21.20
2022-08-26T11:34:59.264Z,23.20
2022-08-26T11:38:18.089Z,20.20
2022-08-26T11:41:22.515Z,16.30
2022-08-26T11:44:27.267Z,14.80
2022-08-26T11:47:31.010Z,17.10
2022-08-26T11:50:33.277Z,13.30
2022-08-26T11:53:38.726Z,12.20
2022-08-26T11:56:42.199Z,10.50
2022-08-26T11:59:44.054Z,15.50
2022-08-26T12:02:45.742Z,15.30
2022-08-26T12:05:49.372Z,13.30
2022-08-26T12:08:52.505Z,16.80
2022-08-26T12:12:14.853Z,11.00
2022-08-26T12:15:20.100Z,19.30
2022-08-26T12:18:34.181Z,16.40
2022-08-26T12:21:37.445Z,18.70
2022-08-26T12:24:46.067Z,14.40
2022-08-26T12:27:50.608Z,16.40
2022-08-26T12:31:00.969Z,13.00
2022-08-26T12:34:06.152Z,17.30
2022-08-26T12:37:19.466Z,15.10
2022-08-26T12:40:41.122Z,17.80
2022-08-26T12:43:45.115Z,15.70
2022-08-26T12:46:49.831Z,18.00
2022-08-26T12:50:06.268Z,15.50
2022-08-26T12:53:11.153Z,16.80
2022-08-26T12:56:35.293Z,17.60
2022-08-26T12:59:37.143Z,13.40
2022-08-26T13:02:40.343Z,13.90
2022-08-26T13:05:42.253Z,12.20
2022-08-26T13:08:49.354Z,12.70
2022-08-26T13:11:53.302Z,14.40
2022-08-26T13:14:55.971Z,17.00
2022-08-26T13:17:58.241Z,14.90
2022-08-26T13:21:00.538Z,14.60
2022-08-26T13:24:08.734Z,13.60
2022-08-26T13:27:13.333Z,15.70
2022-08-26T13:30:15.608Z,15.80
2022-08-26T13:33:18.766Z,19.20
2022-08-26T13:36:22.222Z,15.80
2022-08-26T13:39:25.510Z,16.50
2022-08-26T13:42:27.466Z,17.60
2022-08-26T13:45:29.294Z,15.80
2022-08-26T13:48:32.007Z,17.90
2022-08-26T13:51:34.390Z,18.10
2022-08-26T13:54:36.438Z,21.70
2022-08-26T13:57:38.813Z,16.70
2022-08-26T14:00:41.456Z,22.40
2022-08-26T14:03:43.989Z,13.90
2022-08-26T14:06:45.811Z,17.00
2022-08-26T14:09:49.987Z,17.30
2022-08-26T14:12:52.008Z,15.00
2022-08-26T14:15:54.318Z,18.50
2022-08-26T14:18:56.322Z,13.40
2022-08-26T14:22:01.012Z,12.90
2022-08-26T14:25:03.066Z,17.10
2022-08-26T14:28:04.903Z,19.30
2022-08-26T14:31:07.126Z,13.60
2022-08-26T14:34:13.241Z,19.30
2022-08-26T14:37:15.541Z,21.70
2022-08-26T14:40:19.463Z,14.80
2022-08-26T14:43:21.965Z,17.80
2022-08-26T14:46:28.352Z,16.20
2022-08-26T14:49:31.849Z,17.10
2022-08-26T14:52:54.165Z,13.90
2022-08-26T14:55:56.042Z,13.50
2022-08-26T14:58:57.795Z,15.30
2022-08-26T15:02:00.982Z,20.40
2022-08-26T15:05:04.370Z,16.00
2022-08-26T15:08:10.852Z,16.00
2022-08-26T15:11:13.105Z,11.90
2022-08-26T15:14:19.675Z,18.30
2022-08-26T15:17:22.114Z,14.30
2022-08-26T15:20:24.370Z,14.60
2022-08-26T15:23:27.168Z,11.20
2022-08-26T15:26:31.145Z,17.90
2022-08-26T15:29:36.296Z,14.00
2022-08-26T15:32:38.606Z,15.30
2022-08-26T15:35:40.447Z,14.40
2022-08-26T15:38:45.207Z,12.50
2022-08-26T15:41:47.159Z,15.90
2022-08-26T15:44:50.031Z,13.70
2022-08-26T15:48:01.290Z,17.60
2022-08-26T15:51:21.265Z,16.90
2022-08-26T15:54:24.567Z,16.60
2022-08-26T15:57:26.491Z,13.20
2022-08-26T16:00:28.853Z,16.80
2022-08-26T16:03:30.711Z,14.50
2022-08-26T16:06:34.781Z,16.40
2022-08-26T16:09:36.806Z,17.00
2022-08-26T16:12:38.642Z,18.70
2022-08-26T16:15:41.216Z,14.90
2022-08-26T16:18:43.558Z,13.30
2022-08-26T16:21:45.445Z,17.20
2022-08-26T16:24:47.290Z,15.90
2022-08-26T16:27:49.240Z,13.40
2022-08-26T16:30:52.772Z,15.10
2022-08-26T16:33:54.483Z,18.40
2022-08-26T16:36:56.410Z,12.80
2022-08-26T16:39:58.524Z,14.90
2022-08-26T16:43:00.398Z,19.50
2022-08-26T16:46:02.298Z,13.70
2022-08-26T16:49:04.816Z,17.30
2022-08-26T16:52:07.954Z,18.50
2022-08-26T16:55:13.364Z,15.70
2022-08-26T16:58:15.531Z,18.30
2022-08-26T17:01:17.981Z,14.50
2022-08-26T17:04:19.971Z,17.40
2022-08-26T17:07:21.983Z,16.20
2022-08-26T17:10:25.060Z,16.50
2022-08-26T17:13:35.207Z,20.10
2022-08-26T17:16:38.266Z,21.30
2022-08-26T17:19:46.832Z,18.60
2022-08-26T17:22:50.882Z,21.50
2022-08-26T17:25:52.975Z,22.40
2022-08-26T17:28:54.858Z,19.90
2022-08-26T17:31:56.722Z,23.20
2022-08-26T17:34:59.094Z,30.00
2022-08-26T17:38:01.036Z,35.70
2022-08-26T17:41:03.092Z,36.00
2022-08-26T17:44:05.369Z,23.70
2022-08-26T17:47:07.275Z,24.50
2022-08-26T17:50:12.853Z,27.40
2022-08-26T17:53:19.139Z,23.10
2022-08-26T17:56:27.575Z,22.40
2022-08-26T17:59:30.467Z,24.70
2022-08-26T18:02:32.565Z,24.40
2022-08-26T18:05:34.656Z,29.20
2022-08-26T18:08:38.052Z,27.40
2022-08-26T18:11:40.300Z,26.90
2022-08-26T18:14:43.297Z,24.90
2022-08-26T18:17:45.325Z,27.20
2022-08-26T18:20:47.355Z,28.50
2022-08-26T18:23:54.962Z,25.20
2022-08-26T18:26:56.839Z,26.60
2022-08-26T18:29:58.666Z,26.80
2022-08-26T18:33:00.979Z,26.20
2022-08-26T18:36:02.981Z,30.00
2022-08-26T18:39:06.108Z,26.30
2022-08-26T18:42:08.555Z,25.40
2022-08-26T18:45:10.829Z,25.00
2022-08-26T18:48:18.034Z,26.80
2022-08-26T18:51:31.492Z,23.10
2022-08-26T18:54:33.328Z,25.00
2022-08-26T18:57:35.141Z,28.40
2022-08-26T19:00:36.970Z,23.90
2022-08-26T19:03:38.752Z,22.40
2022-08-26T19:06:41.413Z,26.50
2022-08-26T19:09:43.760Z,23.90
2022-08-26T19:12:46.785Z,22.00
2022-08-26T19:15:53.750Z,26.50
2022-08-26T19:18:58.503Z,21.30
2022-08-26T19:22:00.549Z,29.10
2022-08-26T19:25:02.599Z,22.30
2022-08-26T19:28:04.328Z,21.00
2022-08-26T19:31:10.674Z,22.80
2022-08-26T19:34:12.700Z,25.40
2022-08-26T19:37:15.050Z,27.20
2022-08-26T19:40:16.871Z,28.40
2022-08-26T19:43:20.957Z,24.60
2022-08-26T19:46:26.685Z,23.70
2022-08-26T19:49:28.591Z,23.00
2022-08-26T19:52:30.349Z,21.00
2022-08-26T19:55:32.299Z,26.60
2022-08-26T19:58:35.442Z,23.30
2022-08-26T20:01:37.320Z,22.40
2022-08-26T20:04:39.372Z,21.20
2022-08-26T20:07:41.320Z,20.80
2022-08-26T20:10:44.541Z,24.10
2022-08-26T20:13:47.281Z,22.40
2022-08-26T20:16:49.501Z,20.70
2022-08-26T20:20:13.301Z,21.90
2022-08-26T20:23:30.440Z,22.00
2022-08-26T20:26:34.966Z,24.80
2022-08-26T20:29:37.651Z,23.50
2022-08-26T20:32:40.395Z,21.60
2022-08-26T20:35:42.196Z,25.00
2022-08-26T20:38:44.586Z,21.80
2022-08-26T20:41:47.214Z,20.90
2022-08-26T20:44:54.768Z,27.30
2022-08-26T20:47:57.257Z,24.50
2022-08-26T20:51:00.245Z,22.80
2022-08-26T20:54:02.549Z,24.80
2022-08-26T20:57:04.663Z,21.20
2022-08-26T21:00:07.563Z,22.60
2022-08-26T21:03:09.458Z,24.90
2022-08-26T21:06:12.604Z,22.20
2022-08-26T21:09:15.371Z,24.10
2022-08-26T21:12:18.367Z,26.00
2022-08-26T21:15:20.507Z,21.40
2022-08-26T21:18:22.304Z,22.50
2022-08-26T21:21:27.567Z,23.30
2022-08-26T21:24:29.549Z,22.80
2022-08-26T21:27:31.711Z,27.60
2022-08-26T21:30:37.934Z,25.40
2022-08-26T21:33:40.497Z,23.60
2022-08-26T21:36:42.742Z,23.80
2022-08-26T21:39:44.659Z,24.60
2022-08-26T21:42:46.493Z,26.80
2022-08-26T21:45:50.226Z,20.60
2022-08-26T21:48:58.286Z,22.60
2022-08-26T21:52:01.872Z,19.90
2022-08-26T21:55:05.096Z,24.20
2022-08-26T21:58:11.766Z,22.80
2022-08-26T22:01:20.832Z,24.70
2022-08-26T22:04:22.919Z,22.00
2022-08-26T22:07:24.663Z,25.50
2022-08-26T22:10:26.526Z,24.10
2022-08-26T22:13:31.102Z,22.90
2022-08-26T22:16:32.980Z,24.30
2022-08-26T22:19:36.104Z,23.50
2022-08-26T22:22:51.714Z,25.10
2022-08-26T22:25:54.500Z,24.60
2022-08-26T22:28:58.703Z,26.90
2022-08-26T22:32:01.878Z,24.70
2022-08-26T22:35:11.381Z,26.20
2022-08-26T22:38:26.214Z,24.90
2022-08-26T22:41:28.090Z,27.40
2022-08-26T22:44:31.654Z,26.60
2022-08-26T22:47:34.923Z,28.80
2022-08-26T22:50:39.028Z,25.90
2022-08-26T22:53:41.479Z,28.50
2022-08-26T22:56:45.540Z,22.80
2022-08-26T22:59:47.400Z,24.80
2022-08-26T23:02:49.222Z,28.20
2022-08-26T23:06:11.103Z,24.10
2022-08-26T23:09:28.107Z,27.40
2022-08-26T23:12:30.110Z,22.80
2022-08-26T23:15:32.006Z,30.20
2022-08-26T23:18:33.921Z,27.60
2022-08-26T23:21:35.840Z,22.80
2022-08-26T23:24:37.754Z,25.20
2022-08-26T23:27:41.886Z,23.60
2022-08-26T23:30:43.911Z,25.20
2022-08-26T23:34:04.594Z,23.90
2022-08-26T23:37:07.863Z,24.00
2022-08-26T23:40:15.974Z,24.90
2022-08-26T23:43:18.411Z,25.50
2022-08-26T23:46:20.737Z,26.50
2022-08-26T23:49:23.039Z,23.40
2022-08-26T23:52:43.589Z,26.50
2022-08-26T23:55:48.495Z,28.10
2022-08-26T23:58:50.337Z,24.60
